Terminal Aerodrome Forecast
Issued by NWS

Home | Current Version | Previous Version | Text Only | Print | Product List | Glossary On
Versions: 1 2 3 4 5 6 7 8 9 10 11 12 13 14 15 16 17 18 19 20 21 22 23 24 25
000
FTUS43 KABR 171100
TAFATY
TAF
KATY 171123Z 1712/1812 36008KT P6SM SKC
     FM171600 04006KT P6SM BKN080
     FM172200 12009KT P6SM BKN100
     FM180500 13017KT P6SM OVC040=

USA.gov is the U.S. government's official web portal to all federal, state and local government web resources and services.